createdAt,value
2022-09-06T00:00:32.436Z,21.22
2022-09-06T00:01:34.833Z,21.44
2022-09-06T00:02:37.506Z,21.41
2022-09-06T00:03:40.881Z,21.40
2022-09-06T00:04:43.639Z,21.26
2022-09-06T00:05:45.380Z,21.41
2022-09-06T00:06:47.326Z,21.44
2022-09-06T00:07:49.071Z,21.37
2022-09-06T00:08:50.763Z,21.39
2022-09-06T00:09:52.837Z,21.36
2022-09-06T00:11:01.110Z,21.17
2022-09-06T00:12:04.000Z,21.16
2022-09-06T00:13:08.153Z,21.15
2022-09-06T00:14:09.992Z,21.08
2022-09-06T00:15:11.622Z,21.10
2022-09-06T00:16:20.326Z,21.15
2022-09-06T00:17:22.471Z,21.04
2022-09-06T00:18:24.719Z,21.09
2022-09-06T00:19:26.382Z,21.08
2022-09-06T00:20:29.665Z,21.08
2022-09-06T00:21:31.776Z,20.98
2022-09-06T00:22:33.385Z,21.09
2022-09-06T00:23:34.920Z,21.02
2022-09-06T00:24:37.322Z,21.11
2022-09-06T00:25:39.221Z,21.12
2022-09-06T00:26:41.016Z,21.17
2022-09-06T00:27:42.617Z,21.19
2022-09-06T00:28:45.114Z,21.16
2022-09-06T00:29:46.733Z,21.04
2022-09-06T00:30:48.385Z,21.02
2022-09-06T00:31:50.331Z,20.91
2022-09-06T00:32:53.922Z,21.04
2022-09-06T00:33:55.520Z,20.84
2022-09-06T00:34:57.210Z,20.68
2022-09-06T00:36:00.974Z,20.89
2022-09-06T00:37:02.589Z,20.91
2022-09-06T00:38:04.326Z,21.02
2022-09-06T00:39:06.066Z,21.04
2022-09-06T00:40:08.612Z,20.95
2022-09-06T00:41:12.631Z,21.00
2022-09-06T00:42:14.388Z,21.06
2022-09-06T00:43:16.203Z,20.92
2022-09-06T00:44:17.963Z,21.07
2022-09-06T00:45:19.732Z,21.09
2022-09-06T00:46:25.533Z,20.90
2022-09-06T00:47:28.783Z,20.93
2022-09-06T00:48:30.593Z,20.84
2022-09-06T00:49:37.587Z,20.98
2022-09-06T00:50:39.218Z,20.93
2022-09-06T00:51:41.399Z,21.02
2022-09-06T00:52:45.063Z,20.97
2022-09-06T00:53:46.769Z,21.01
2022-09-06T00:54:50.320Z,21.10
2022-09-06T00:55:52.732Z,21.09
2022-09-06T00:56:55.701Z,21.13
2022-09-06T00:57:57.616Z,21.17
2022-09-06T00:59:00.689Z,21.21
2022-09-06T01:00:04.010Z,21.20
2022-09-06T01:01:07.034Z,21.26
2022-09-06T01:02:09.584Z,21.28
2022-09-06T01:03:12.491Z,21.17
2022-09-06T01:04:14.564Z,21.08
2022-09-06T01:05:16.763Z,21.27
2022-09-06T01:06:24.610Z,21.25
2022-09-06T01:07:29.519Z,21.21
2022-09-06T01:08:48.885Z,21.07
2022-09-06T01:10:22.281Z,21.04
2022-09-06T01:11:29.852Z,21.09
2022-09-06T01:12:55.628Z,21.08
2022-09-06T01:14:14.190Z,21.01
2022-09-06T01:16:18.436Z,20.99
2022-09-06T01:17:38.062Z,20.89
2022-09-06T01:19:04.210Z,20.83
2022-09-06T01:20:31.017Z,20.71
2022-09-06T01:22:01.901Z,20.49
2022-09-06T01:23:40.964Z,20.40
2022-09-06T01:24:48.375Z,20.26
2022-09-06T01:26:27.626Z,20.11
2022-09-06T01:27:51.360Z,19.95
2022-09-06T01:28:54.810Z,19.74
2022-09-06T01:30:13.019Z,19.74
2022-09-06T01:31:38.875Z,19.67
2022-09-06T01:32:55.505Z,19.60
2022-09-06T01:34:06.475Z,19.54
2022-09-06T01:35:40.919Z,19.49
2022-09-06T01:37:11.118Z,19.39
2022-09-06T01:38:13.535Z,19.30
2022-09-06T01:39:25.270Z,19.14
2022-09-06T01:40:28.525Z,19.01
2022-09-06T01:41:30.993Z,18.96
2022-09-06T01:42:35.956Z,18.77
2022-09-06T01:43:41.985Z,18.79
2022-09-06T01:44:52.881Z,18.74
2022-09-06T01:46:15.929Z,18.69
2022-09-06T01:47:27.886Z,18.62
2022-09-06T01:48:46.788Z,18.59
2022-09-06T01:50:10.365Z,18.53
2022-09-06T01:51:14.401Z,18.45
2022-09-06T01:52:26.148Z,18.27
2022-09-06T01:53:46.306Z,18.24
2022-09-06T01:54:54.029Z,18.18
2022-09-06T01:56:20.194Z,18.03
2022-09-06T01:57:40.863Z,18.07
2022-09-06T01:58:51.516Z,18.05
2022-09-06T02:00:25.850Z,18.03
2022-09-06T02:01:58.066Z,18.00
2022-09-06T02:03:39.569Z,17.93
2022-09-06T02:04:46.037Z,17.92
2022-09-06T02:05:55.754Z,17.63
2022-09-06T02:07:05.742Z,17.91
2022-09-06T02:08:14.676Z,17.83
2022-09-06T02:09:24.205Z,17.73
2022-09-06T02:10:36.748Z,17.68
2022-09-06T02:11:45.306Z,17.74
2022-09-06T02:12:52.165Z,17.72
2022-09-06T02:14:05.550Z,17.73
2022-09-06T02:15:16.449Z,17.64
2022-09-06T02:16:23.411Z,17.77
2022-09-06T02:17:34.677Z,17.82
2022-09-06T02:18:56.920Z,17.81
2022-09-06T02:20:04.413Z,17.90
2022-09-06T02:21:06.923Z,17.91
2022-09-06T02:22:12.461Z,17.90
2022-09-06T02:23:16.510Z,17.82
2022-09-06T02:24:25.855Z,17.88
2022-09-06T02:25:35.983Z,17.80
2022-09-06T02:26:42.635Z,17.83
2022-09-06T02:27:44.587Z,17.72
2022-09-06T02:28:46.845Z,17.81
2022-09-06T02:29:48.645Z,17.79
2022-09-06T02:30:56.323Z,17.75
2022-09-06T02:32:06.314Z,17.74
2022-09-06T02:33:13.914Z,17.71
2022-09-06T02:34:18.326Z,17.65
2022-09-06T02:35:20.292Z,17.70
2022-09-06T02:36:22.417Z,17.71
2022-09-06T02:37:29.428Z,17.72
2022-09-06T02:38:32.342Z,17.68
2022-09-06T02:39:34.156Z,17.70
2022-09-06T02:40:36.273Z,17.68
2022-09-06T02:41:39.952Z,17.65
2022-09-06T02:42:42.957Z,17.68
2022-09-06T02:43:44.993Z,16.99
2022-09-06T02:44:46.700Z,17.67
2022-09-06T02:45:48.867Z,17.56
2022-09-06T02:46:53.836Z,17.29
2022-09-06T02:47:58.618Z,17.54
2022-09-06T02:49:00.726Z,17.61
2022-09-06T02:50:02.502Z,17.47
2022-09-06T02:51:09.811Z,17.59
2022-09-06T02:52:13.081Z,17.38
2022-09-06T02:53:15.780Z,17.58
2022-09-06T02:54:17.601Z,16.92
2022-09-06T02:55:19.570Z,17.53
2022-09-06T02:56:21.359Z,17.45
2022-09-06T02:57:23.890Z,17.12
2022-09-06T02:58:26.462Z,17.49
2022-09-06T02:59:28.207Z,17.42
2022-09-06T03:00:31.584Z,17.61
2022-09-06T03:01:34.190Z,17.63
2022-09-06T03:02:36.364Z,17.57
2022-09-06T03:03:38.367Z,17.67
2022-09-06T03:04:40.496Z,17.64
2022-09-06T03:05:46.218Z,17.72
2022-09-06T03:06:49.039Z,17.72
2022-09-06T03:07:51.641Z,17.75
2022-09-06T03:08:54.250Z,17.40
2022-09-06T03:09:57.065Z,17.62
2022-09-06T03:10:59.740Z,17.70
2022-09-06T03:12:02.020Z,17.62
2022-09-06T03:13:05.966Z,17.59
2022-09-06T03:14:07.611Z,17.63
2022-09-06T03:15:10.043Z,17.54
2022-09-06T03:16:11.825Z,17.40
2022-09-06T03:17:13.602Z,17.35
2022-09-06T03:18:15.277Z,17.62
2022-09-06T03:19:18.008Z,17.67
2022-09-06T03:20:20.973Z,17.63
2022-09-06T03:21:22.811Z,17.50
2022-09-06T03:22:24.686Z,17.70
2022-09-06T03:23:27.975Z,17.69
2022-09-06T03:24:29.941Z,17.68
2022-09-06T03:25:31.598Z,17.63
2022-09-06T03:26:33.611Z,17.67
2022-09-06T03:27:35.709Z,17.56
2022-09-06T03:28:37.855Z,17.64
2022-09-06T03:29:39.808Z,17.53
2022-09-06T03:30:45.605Z,17.49
2022-09-06T03:31:47.873Z,17.48
2022-09-06T03:32:49.754Z,17.41
2022-09-06T03:33:51.897Z,17.56
2022-09-06T03:34:55.519Z,17.54
2022-09-06T03:35:59.414Z,17.46
2022-09-06T03:37:01.351Z,17.37
2022-09-06T03:38:03.326Z,17.51
2022-09-06T03:39:05.246Z,17.38
2022-09-06T03:40:07.729Z,17.18
2022-09-06T03:41:12.408Z,17.48
2022-09-06T03:42:17.873Z,16.86
2022-09-06T03:43:21.432Z,16.95
2022-09-06T03:44:23.460Z,16.83
2022-09-06T03:45:25.543Z,16.85
2022-09-06T03:46:31.495Z,16.90
2022-09-06T03:47:33.887Z,17.29
2022-09-06T03:48:35.626Z,16.93
2022-09-06T03:49:37.794Z,16.88
2022-09-06T03:50:45.922Z,17.40
2022-09-06T03:51:48.971Z,17.40
2022-09-06T03:52:52.033Z,16.87
2022-09-06T03:53:54.232Z,16.79
2022-09-06T03:54:56.386Z,17.37
2022-09-06T03:56:03.964Z,16.66
2022-09-06T03:57:05.643Z,17.23
2022-09-06T03:58:08.035Z,17.09
2022-09-06T03:59:10.052Z,17.34
2022-09-06T04:00:12.394Z,16.69
2022-09-06T04:01:14.671Z,16.72
2022-09-06T04:02:16.991Z,16.68
2022-09-06T04:03:20.121Z,16.97
2022-09-06T04:04:30.956Z,17.20
2022-09-06T04:05:32.896Z,16.56
2022-09-06T04:06:35.316Z,16.52
2022-09-06T04:07:38.126Z,16.94
2022-09-06T04:08:40.415Z,17.08
2022-09-06T04:09:42.555Z,16.71
2022-09-06T04:10:46.045Z,16.92
2022-09-06T04:11:48.004Z,16.39
2022-09-06T04:12:50.747Z,16.91
2022-09-06T04:13:55.107Z,16.70
2022-09-06T04:14:56.903Z,16.41
2022-09-06T04:16:01.613Z,16.91
2022-09-06T04:17:03.318Z,16.62
2022-09-06T04:18:09.154Z,16.27
2022-09-06T04:19:11.536Z,16.83
2022-09-06T04:20:20.071Z,16.08
2022-09-06T04:21:22.246Z,16.75
2022-09-06T04:22:23.983Z,16.03
2022-09-06T04:23:28.794Z,16.75
2022-09-06T04:24:30.387Z,16.59
2022-09-06T04:25:33.528Z,16.60
2022-09-06T04:26:37.911Z,16.31
2022-09-06T04:27:39.836Z,16.39
2022-09-06T04:28:41.617Z,16.54
2022-09-06T04:29:43.868Z,16.57
2022-09-06T04:31:05.279Z,15.90
2022-09-06T04:32:07.585Z,16.22
2022-09-06T04:33:11.137Z,16.60
2022-09-06T04:34:13.046Z,16.52
2022-09-06T04:35:14.904Z,15.95
2022-09-06T04:36:16.533Z,16.35
2022-09-06T04:37:20.401Z,16.57
2022-09-06T04:38:23.316Z,15.87
2022-09-06T04:39:29.002Z,16.39
2022-09-06T04:40:30.730Z,16.43
2022-09-06T04:41:33.464Z,15.97
2022-09-06T04:42:36.772Z,15.83
2022-09-06T04:43:39.396Z,16.53
2022-09-06T04:44:42.920Z,16.53
2022-09-06T04:45:45.026Z,16.35
2022-09-06T04:46:49.342Z,16.37
2022-09-06T04:47:53.606Z,16.50
2022-09-06T04:49:01.344Z,16.45
2022-09-06T04:50:03.500Z,16.32
2022-09-06T04:51:05.468Z,16.28
2022-09-06T04:52:07.451Z,15.87
2022-09-06T04:53:11.434Z,16.32
2022-09-06T04:54:13.111Z,15.76
2022-09-06T04:55:18.840Z,15.76
2022-09-06T04:56:23.839Z,16.35
2022-09-06T04:57:25.778Z,16.34
2022-09-06T04:58:27.539Z,16.38
2022-09-06T04:59:32.812Z,16.25
2022-09-06T05:00:36.613Z,16.47
2022-09-06T05:01:38.687Z,16.14
2022-09-06T05:02:41.796Z,16.41
2022-09-06T05:03:43.637Z,16.25
2022-09-06T05:04:51.218Z,16.31
2022-09-06T05:05:55.186Z,16.43
2022-09-06T05:07:05.045Z,16.04
2022-09-06T05:08:08.325Z,16.10
2022-09-06T05:09:12.293Z,15.79
2022-09-06T05:10:14.370Z,16.29
2022-09-06T05:11:16.834Z,15.83
2022-09-06T05:12:18.840Z,15.84
2022-09-06T05:13:21.334Z,16.38
2022-09-06T05:14:23.259Z,15.72
2022-09-06T05:15:26.229Z,15.87
2022-09-06T05:16:28.129Z,16.13
2022-09-06T05:17:31.009Z,16.18
2022-09-06T05:18:34.289Z,16.38
2022-09-06T05:19:36.302Z,16.11
2022-09-06T05:20:38.408Z,16.36
2022-09-06T05:21:40.064Z,16.28
2022-09-06T05:22:44.209Z,15.90
2022-09-06T05:23:46.567Z,16.31
2022-09-06T05:24:49.849Z,15.94
2022-09-06T05:25:51.934Z,16.41
2022-09-06T05:26:55.359Z,16.34
2022-09-06T05:27:57.422Z,16.24
2022-09-06T05:28:59.485Z,16.40
2022-09-06T05:30:03.588Z,15.92
2022-09-06T05:31:13.289Z,16.61
2022-09-06T05:32:15.423Z,16.45
2022-09-06T05:33:22.991Z,16.17
2022-09-06T05:34:25.108Z,16.61
2022-09-06T05:35:28.239Z,16.53
2022-09-06T05:36:31.358Z,16.27
2022-09-06T05:37:33.022Z,16.27
2022-09-06T05:38:34.980Z,16.85
2022-09-06T05:39:40.898Z,16.59
2022-09-06T05:40:42.582Z,16.27
2022-09-06T05:41:44.462Z,16.51
2022-09-06T05:42:49.402Z,16.69
2022-09-06T05:43:54.358Z,16.89
2022-09-06T05:44:56.850Z,16.42
2022-09-06T05:45:58.679Z,16.46
2022-09-06T05:47:01.566Z,16.88
2022-09-06T05:48:04.771Z,16.69
2022-09-06T05:49:08.253Z,16.89
2022-09-06T05:50:10.714Z,17.04
2022-09-06T05:51:15.501Z,16.92
2022-09-06T05:52:17.751Z,16.56
2022-09-06T05:53:19.772Z,17.07
2022-09-06T05:54:21.682Z,17.27
2022-09-06T05:55:24.155Z,17.32
2022-09-06T05:56:26.322Z,17.03
2022-09-06T05:57:29.613Z,17.36
2022-09-06T05:58:33.113Z,16.81
2022-09-06T05:59:36.509Z,17.39
2022-09-06T06:00:40.097Z,17.41
2022-09-06T06:02:08.362Z,17.66
2022-09-06T06:03:10.047Z,17.13
2022-09-06T06:04:11.974Z,17.16
2022-09-06T06:05:14.217Z,17.43
2022-09-06T06:06:17.612Z,17.93
2022-09-06T06:07:19.426Z,17.67
2022-09-06T06:08:21.515Z,18.34
2022-09-06T06:09:23.474Z,18.51
2022-09-06T06:10:25.821Z,18.97
2022-09-06T06:11:28.169Z,18.71
2022-09-06T06:12:31.301Z,19.45
2022-09-06T06:13:41.809Z,19.37
2022-09-06T06:14:43.781Z,19.50
2022-09-06T06:15:47.407Z,19.75
2022-09-06T06:16:49.411Z,19.22
2022-09-06T06:17:51.262Z,19.81
2022-09-06T06:18:56.260Z,19.54
2022-09-06T06:19:58.914Z,19.30
2022-09-06T06:21:21.681Z,19.57
2022-09-06T06:22:23.531Z,19.58
2022-09-06T06:23:25.830Z,19.07
2022-09-06T06:24:28.794Z,19.68
2022-09-06T06:25:30.921Z,19.01
2022-09-06T06:26:42.395Z,19.80
2022-09-06T06:27:44.867Z,19.59
2022-09-06T06:28:47.086Z,19.87
2022-09-06T06:29:49.245Z,19.63
2022-09-06T06:30:52.652Z,19.98
2022-09-06T06:31:54.632Z,20.05
2022-09-06T06:32:58.685Z,20.13
2022-09-06T06:34:03.341Z,19.87
2022-09-06T06:35:05.635Z,20.05
2022-09-06T06:36:15.789Z,20.45
2022-09-06T06:37:18.030Z,20.38
2022-09-06T06:38:20.831Z,20.71
2022-09-06T06:39:23.934Z,20.73
2022-09-06T06:40:25.529Z,21.08
2022-09-06T06:41:30.520Z,21.40
2022-09-06T06:42:32.184Z,21.59
2022-09-06T06:43:38.330Z,21.70
2022-09-06T06:44:40.019Z,22.02
2022-09-06T06:45:42.285Z,22.27
2022-09-06T06:46:44.136Z,22.40
2022-09-06T06:47:49.998Z,22.66
2022-09-06T06:48:56.936Z,22.54
2022-09-06T06:49:58.944Z,22.66
2022-09-06T06:51:01.486Z,23.13
2022-09-06T06:52:03.910Z,23.27
2022-09-06T06:53:05.646Z,24.04
2022-09-06T06:54:07.589Z,24.34
2022-09-06T06:55:09.707Z,23.80
2022-09-06T06:56:16.775Z,24.91
2022-09-06T06:57:18.873Z,25.30
2022-09-06T06:58:23.260Z,25.40
2022-09-06T06:59:26.025Z,24.77
2022-09-06T07:00:28.442Z,24.24
2022-09-06T07:01:32.924Z,23.52
2022-09-06T07:02:34.753Z,23.47
2022-09-06T07:03:36.666Z,23.95
2022-09-06T07:04:39.966Z,24.30
2022-09-06T07:08:31.708Z,24.75
2022-09-06T07:11:01.722Z,26.70
2022-09-06T07:12:03.522Z,27.33
2022-09-06T07:13:05.594Z,27.54
2022-09-06T07:14:07.270Z,27.30
2022-09-06T07:15:10.190Z,27.99
2022-09-06T07:16:18.533Z,28.22
2022-09-06T07:17:20.535Z,27.95
2022-09-06T07:18:22.521Z,27.69
2022-09-06T07:22:11.699Z,26.61
2022-09-06T07:24:37.003Z,26.02
2022-09-06T07:25:39.817Z,25.75
2022-09-06T07:26:41.945Z,26.24
2022-09-06T07:28:48.057Z,25.27
2022-09-06T07:29:49.973Z,25.19
2022-09-06T07:30:54.580Z,24.79
2022-09-06T07:32:16.003Z,24.57
2022-09-06T07:33:18.455Z,24.34
2022-09-06T07:34:20.944Z,24.24
2022-09-06T07:35:23.717Z,24.10
2022-09-06T07:36:25.932Z,24.41
2022-09-06T07:37:27.605Z,24.16
2022-09-06T07:38:30.859Z,24.52
2022-09-06T07:39:37.059Z,24.52
2022-09-06T07:40:39.002Z,25.18
2022-09-06T07:41:41.891Z,25.62
2022-09-06T07:42:44.665Z,25.91
2022-09-06T07:43:47.594Z,26.51
2022-09-06T07:44:49.201Z,26.26
2022-09-06T07:46:20.534Z,27.10
2022-09-06T07:48:46.803Z,27.88
2022-09-06T07:51:14.720Z,28.79
2022-09-06T07:53:40.959Z,29.35
2022-09-06T07:54:42.603Z,29.17
2022-09-06T07:55:44.672Z,29.31
2022-09-06T07:56:47.330Z,29.84
2022-09-06T07:57:49.112Z,30.65
2022-09-06T07:58:52.687Z,30.97
2022-09-06T07:59:56.742Z,31.75
2022-09-06T08:01:35.393Z,32.20
2022-09-06T08:02:37.538Z,31.94
2022-09-06T08:03:41.711Z,31.98
2022-09-06T08:04:47.574Z,31.52
2022-09-06T08:09:57.417Z,29.08
2022-09-06T08:10:59.482Z,29.10
2022-09-06T08:12:07.086Z,28.20
2022-09-06T08:13:09.084Z,28.53
2022-09-06T08:14:11.270Z,27.99
2022-09-06T08:15:12.886Z,28.01
2022-09-06T08:16:17.057Z,27.65
2022-09-06T08:17:20.647Z,28.28
2022-09-06T08:18:22.543Z,27.96
2022-09-06T08:19:25.810Z,27.92
2022-09-06T08:20:27.860Z,28.07
2022-09-06T08:21:32.614Z,27.96
2022-09-06T08:22:34.659Z,27.74
2022-09-06T08:23:36.877Z,27.39
2022-09-06T08:24:39.068Z,26.95
2022-09-06T08:25:41.323Z,26.49
2022-09-06T08:26:46.067Z,27.04
2022-09-06T08:27:48.151Z,26.97
2022-09-06T08:29:00.536Z,27.16
2022-09-06T08:30:02.268Z,27.22
2022-09-06T08:31:09.269Z,27.16
2022-09-06T08:32:11.511Z,26.88
2022-09-06T08:33:13.353Z,26.84
2022-09-06T08:34:16.508Z,26.42
2022-09-06T08:35:18.683Z,26.57
2022-09-06T08:36:21.130Z,26.56
2022-09-06T08:37:25.064Z,26.74
2022-09-06T08:38:28.917Z,26.64
2022-09-06T08:39:30.961Z,26.77
2022-09-06T08:40:34.656Z,26.52
2022-09-06T08:42:03.077Z,26.93
2022-09-06T08:43:05.095Z,26.43
2022-09-06T08:45:33.516Z,27.42
2022-09-06T08:47:17.907Z,28.00
2022-09-06T08:48:20.063Z,27.67
2022-09-06T08:49:22.811Z,28.21
2022-09-06T08:50:28.656Z,28.86
2022-09-06T08:51:38.702Z,28.76
2022-09-06T08:54:39.290Z,30.13
2022-09-06T08:56:05.795Z,30.73
2022-09-06T08:57:25.662Z,31.05
2022-09-06T08:58:44.767Z,30.39
2022-09-06T08:59:47.487Z,30.42
2022-09-06T09:00:58.829Z,31.72
2022-09-06T09:02:12.543Z,32.71
2022-09-06T09:03:26.440Z,33.06
2022-09-06T09:04:30.876Z,32.86
2022-09-06T09:05:38.273Z,33.27
2022-09-06T09:06:40.043Z,32.98
2022-09-06T09:08:01.906Z,33.13
2022-09-06T09:09:07.431Z,33.02
2022-09-06T09:10:16.791Z,33.42
2022-09-06T09:11:22.803Z,33.20
2022-09-06T09:12:26.745Z,33.48
2022-09-06T09:13:36.985Z,34.02
2022-09-06T09:14:43.277Z,33.68
2022-09-06T09:15:46.225Z,33.67
2022-09-06T09:16:53.097Z,33.10
2022-09-06T09:17:55.843Z,33.96
2022-09-06T09:19:00.921Z,34.23
2022-09-06T09:20:03.730Z,34.23
2022-09-06T09:21:06.399Z,34.38
2022-09-06T09:22:09.085Z,35.41
2022-09-06T09:23:11.180Z,35.60
2022-09-06T09:24:16.089Z,35.96
2022-09-06T09:25:24.047Z,36.09
2022-09-06T09:26:31.026Z,35.71
2022-09-06T09:27:34.522Z,36.17
2022-09-06T09:28:36.857Z,35.38
2022-09-06T09:31:34.118Z,35.15
2022-09-06T09:32:38.345Z,36.09
2022-09-06T09:33:40.596Z,35.40
2022-09-06T09:34:42.440Z,35.13
2022-09-06T09:35:45.575Z,34.96
2022-09-06T09:38:22.660Z,34.40
2022-09-06T09:39:37.010Z,34.68
2022-09-06T09:40:50.959Z,34.65
2022-09-06T09:41:52.572Z,34.70
2022-09-06T09:43:08.768Z,34.39
2022-09-06T09:44:19.461Z,34.22
2022-09-06T09:45:30.348Z,34.51
2022-09-06T09:46:37.953Z,34.87
2022-09-06T09:47:39.968Z,34.14
2022-09-06T09:49:20.201Z,33.73
2022-09-06T09:50:32.635Z,33.30
2022-09-06T09:51:42.788Z,33.42
2022-09-06T09:52:44.835Z,33.52
2022-09-06T09:53:57.859Z,33.63
2022-09-06T09:55:05.604Z,33.59
2022-09-06T09:56:08.106Z,32.82
2022-09-06T09:57:14.748Z,33.15
2022-09-06T09:58:33.059Z,33.06
2022-09-06T09:59:53.137Z,32.74
2022-09-06T10:01:29.880Z,33.43
2022-09-06T10:02:35.894Z,33.49
2022-09-06T10:05:09.683Z,34.23
2022-09-06T10:07:43.833Z,32.93
2022-09-06T10:08:45.515Z,32.69
2022-09-06T10:09:50.102Z,33.07
2022-09-06T10:10:52.830Z,32.51
2022-09-06T10:11:59.928Z,32.45
2022-09-06T10:13:24.390Z,32.47
2022-09-06T10:14:30.056Z,31.78
2022-09-06T10:15:33.694Z,32.04
2022-09-06T10:16:45.616Z,31.84
2022-09-06T10:17:47.900Z,31.76
2022-09-06T10:18:52.729Z,31.65
2022-09-06T10:19:54.822Z,32.23
2022-09-06T10:21:18.969Z,32.40
2022-09-06T10:22:30.521Z,32.34
2022-09-06T10:25:49.586Z,32.91
2022-09-06T10:26:54.146Z,33.17
2022-09-06T10:28:27.766Z,33.15
2022-09-06T10:29:41.109Z,32.64
2022-09-06T10:31:08.272Z,32.44
2022-09-06T10:32:31.106Z,33.07
2022-09-06T10:34:05.743Z,33.44
2022-09-06T10:35:32.329Z,34.22
2022-09-06T10:37:03.449Z,35.35
2022-09-06T10:38:23.663Z,35.97
2022-09-06T10:40:02.853Z,35.98
2022-09-06T10:41:23.647Z,37.08
2022-09-06T10:42:53.923Z,37.58
2022-09-06T10:44:06.621Z,37.80
2022-09-06T10:45:36.623Z,38.17
2022-09-06T10:46:42.197Z,38.53
2022-09-06T10:47:54.687Z,38.21
2022-09-06T10:48:57.013Z,38.18
2022-09-06T10:50:01.712Z,37.97
2022-09-06T10:51:18.828Z,38.36
2022-09-06T10:52:31.869Z,38.61
2022-09-06T10:53:38.563Z,37.84
2022-09-06T10:54:43.175Z,37.56
2022-09-06T10:55:50.946Z,37.44
2022-09-06T10:59:39.265Z,36.80
2022-09-06T11:00:49.044Z,37.01
2022-09-06T11:02:06.331Z,37.35
2022-09-06T11:06:13.981Z,37.99
2022-09-06T11:07:15.805Z,38.85
2022-09-06T11:09:01.936Z,38.02
2022-09-06T11:10:09.130Z,37.60
2022-09-06T11:11:23.312Z,37.48
2022-09-06T11:12:55.432Z,38.02
2022-09-06T11:14:01.420Z,38.17
2022-09-06T11:15:07.532Z,38.06
2022-09-06T11:16:19.479Z,38.06
2022-09-06T11:17:32.470Z,38.30
2022-09-06T11:18:49.350Z,38.27
2022-09-06T11:20:06.678Z,37.91
2022-09-06T11:21:40.911Z,38.12
2022-09-06T11:23:10.803Z,38.28
2022-09-06T11:24:23.151Z,38.64
2022-09-06T11:25:40.098Z,38.71
2022-09-06T11:26:45.239Z,38.90
2022-09-06T11:27:57.332Z,38.72
2022-09-06T11:29:03.606Z,38.29
2022-09-06T11:30:06.880Z,38.19
2022-09-06T11:32:38.678Z,38.55
2022-09-06T11:33:41.366Z,38.61
2022-09-06T11:34:54.263Z,38.92
2022-09-06T11:36:16.254Z,38.86
2022-09-06T11:37:51.047Z,39.12
2022-09-06T11:39:02.481Z,39.27
2022-09-06T11:41:40.091Z,39.37
2022-09-06T11:43:04.368Z,39.25
2022-09-06T11:44:09.733Z,39.59
2022-09-06T11:45:11.269Z,39.38
2022-09-06T11:46:36.161Z,39.32
2022-09-06T11:47:48.068Z,38.88
2022-09-06T11:49:04.646Z,39.51
2022-09-06T11:50:24.625Z,39.66
2022-09-06T11:51:36.443Z,39.94
2022-09-06T11:53:18.435Z,40.00
2022-09-06T11:54:23.012Z,38.56
2022-09-06T11:55:38.271Z,38.39
2022-09-06T11:56:49.648Z,38.43
2022-09-06T11:57:58.244Z,39.11
2022-09-06T11:59:22.085Z,39.17
2022-09-06T12:00:25.084Z,39.25
2022-09-06T12:01:27.048Z,39.46
2022-09-06T12:02:43.410Z,39.87
2022-09-06T12:04:04.079Z,40.00
2022-09-06T12:05:10.002Z,40.59
2022-09-06T12:06:22.293Z,40.37
2022-09-06T12:07:24.838Z,40.44
2022-09-06T12:08:32.707Z,40.54
2022-09-06T12:09:37.458Z,40.24
2022-09-06T12:10:39.107Z,40.17
2022-09-06T12:11:42.192Z,40.34
2022-09-06T12:12:51.134Z,40.00
2022-09-06T12:14:39.633Z,40.67
2022-09-06T12:15:55.256Z,40.63
2022-09-06T12:16:58.347Z,40.67
2022-09-06T12:18:01.861Z,40.72
2022-09-06T12:19:04.095Z,40.09
2022-09-06T12:20:07.127Z,39.54
2022-09-06T12:21:47.825Z,39.00
2022-09-06T12:22:49.819Z,38.51
2022-09-06T12:23:51.463Z,38.03
2022-09-06T12:25:05.208Z,37.84
2022-09-06T12:26:08.870Z,37.21
2022-09-06T12:27:19.572Z,37.64
2022-09-06T12:28:47.352Z,38.26
2022-09-06T12:30:02.072Z,37.71
2022-09-06T12:31:24.735Z,38.21
2022-09-06T12:32:47.692Z,38.79
2022-09-06T12:33:49.901Z,38.24
2022-09-06T12:36:30.196Z,37.63
2022-09-06T12:37:38.799Z,37.11
2022-09-06T12:38:40.589Z,36.25
2022-09-06T12:39:57.717Z,35.54
2022-09-06T12:41:01.164Z,35.38
2022-09-06T12:42:05.261Z,35.34
2022-09-06T12:43:12.912Z,34.89
2022-09-06T12:44:16.778Z,34.92
2022-09-06T12:45:27.201Z,35.19
2022-09-06T12:46:31.608Z,35.79
2022-09-06T12:47:37.254Z,36.40
2022-09-06T12:48:41.463Z,36.25
2022-09-06T12:49:43.670Z,36.51
2022-09-06T12:50:45.553Z,36.39
2022-09-06T12:51:47.894Z,35.18
2022-09-06T12:52:49.521Z,34.59
2022-09-06T12:53:56.775Z,34.37
2022-09-06T12:54:58.933Z,34.17
2022-09-06T12:56:12.712Z,34.44
2022-09-06T12:57:23.290Z,35.06
2022-09-06T12:58:28.705Z,35.40
2022-09-06T12:59:33.683Z,35.69
2022-09-06T13:00:51.653Z,36.30
2022-09-06T13:02:12.140Z,36.97
2022-09-06T13:03:32.178Z,37.56
2022-09-06T13:04:46.787Z,38.15
2022-09-06T13:05:48.740Z,38.29
2022-09-06T13:06:50.768Z,37.73
2022-09-06T13:08:00.074Z,37.70
2022-09-06T13:09:05.467Z,36.95
2022-09-06T13:10:09.529Z,36.14
2022-09-06T13:11:15.577Z,36.17
2022-09-06T13:12:31.104Z,36.33
2022-09-06T13:13:33.745Z,36.51
2022-09-06T13:14:36.214Z,36.04
2022-09-06T13:15:38.085Z,35.91
2022-09-06T13:16:48.976Z,35.87
2022-09-06T13:17:53.826Z,35.65
2022-09-06T13:19:10.076Z,35.70
2022-09-06T13:20:22.225Z,35.69
2022-09-06T13:21:33.305Z,34.95
2022-09-06T13:22:45.196Z,34.48
2022-09-06T13:23:49.818Z,34.67
2022-09-06T13:24:56.140Z,34.39
2022-09-06T13:25:57.945Z,34.19
2022-09-06T13:26:59.787Z,34.68
2022-09-06T13:28:02.398Z,34.60
2022-09-06T13:29:16.685Z,35.35
2022-09-06T13:30:33.667Z,36.12
2022-09-06T13:31:35.657Z,36.72
2022-09-06T13:32:46.817Z,37.45
2022-09-06T13:33:59.632Z,38.34
2022-09-06T13:35:02.777Z,38.47
2022-09-06T13:36:12.248Z,39.19
2022-09-06T13:37:15.577Z,39.58
2022-09-06T13:38:38.534Z,39.80
2022-09-06T13:39:44.049Z,40.10
2022-09-06T13:41:10.611Z,40.06
2022-09-06T13:42:28.282Z,40.09
2022-09-06T13:43:33.650Z,40.05
2022-09-06T13:44:39.213Z,39.87
2022-09-06T13:45:41.427Z,39.95
2022-09-06T13:46:43.734Z,39.82
2022-09-06T13:47:45.456Z,39.42
2022-09-06T13:48:47.344Z,38.72
2022-09-06T13:49:51.602Z,38.77
2022-09-06T13:50:53.553Z,39.39
2022-09-06T13:52:00.567Z,39.06
2022-09-06T13:53:02.931Z,38.83
2022-09-06T13:54:10.687Z,39.62
2022-09-06T13:55:18.525Z,39.93
2022-09-06T13:56:20.454Z,40.36
2022-09-06T13:57:24.290Z,39.80
2022-09-06T13:58:28.841Z,39.80
2022-09-06T13:59:31.843Z,39.64
2022-09-06T14:00:33.884Z,39.11
2022-09-06T14:01:37.392Z,39.53
2022-09-06T14:02:41.773Z,38.56
2022-09-06T14:03:44.002Z,38.88
2022-09-06T14:04:46.444Z,39.10
2022-09-06T14:05:48.896Z,39.33
2022-09-06T14:06:51.961Z,39.98
2022-09-06T14:07:54.595Z,39.03
2022-09-06T14:09:07.002Z,37.82
2022-09-06T14:10:11.859Z,37.16
2022-09-06T14:11:14.332Z,36.85
2022-09-06T14:12:16.043Z,37.69
2022-09-06T14:13:19.729Z,37.81
2022-09-06T14:14:21.866Z,37.32
2022-09-06T14:15:23.930Z,36.65
2022-09-06T14:16:25.931Z,36.14
2022-09-06T14:17:29.633Z,35.69
2022-09-06T14:18:32.039Z,35.30
2022-09-06T14:19:33.882Z,35.06
2022-09-06T14:20:35.632Z,35.86
2022-09-06T14:21:37.635Z,35.59
2022-09-06T14:22:39.619Z,35.46
2022-09-06T14:23:41.680Z,36.03
2022-09-06T14:24:43.465Z,35.97
2022-09-06T14:25:46.377Z,36.07
2022-09-06T14:26:49.674Z,36.91
2022-09-06T14:27:53.020Z,37.34
2022-09-06T14:28:56.900Z,37.80
2022-09-06T14:29:59.218Z,37.15
2022-09-06T14:31:15.298Z,36.19
2022-09-06T14:32:22.332Z,36.38
2022-09-06T14:33:24.732Z,37.41
2022-09-06T14:34:26.873Z,36.00
2022-09-06T14:35:28.578Z,35.96
2022-09-06T14:36:32.930Z,36.44
2022-09-06T14:37:35.299Z,36.79
2022-09-06T14:38:38.841Z,36.35
2022-09-06T14:39:40.585Z,36.70
2022-09-06T14:40:44.975Z,36.66
2022-09-06T14:41:46.825Z,36.72
2022-09-06T14:42:50.619Z,36.94
2022-09-06T14:43:55.756Z,36.85
2022-09-06T14:44:57.650Z,37.35
2022-09-06T14:46:12.533Z,37.46
2022-09-06T14:47:14.336Z,37.79
2022-09-06T14:48:16.036Z,38.11
2022-09-06T14:49:17.908Z,37.68
2022-09-06T14:50:19.690Z,36.85
2022-09-06T14:51:22.512Z,36.72
2022-09-06T14:52:24.477Z,36.99
2022-09-06T14:53:39.757Z,37.74
2022-09-06T14:54:42.136Z,37.73
2022-09-06T14:55:44.428Z,37.81
2022-09-06T14:56:46.084Z,38.05
2022-09-06T14:57:49.087Z,38.19
2022-09-06T14:58:54.374Z,37.17
2022-09-06T14:59:56.378Z,37.46
2022-09-06T15:01:15.046Z,37.51